Time;durP1;ratioP1;P1;durP2;ratioP2;P2;SDS_P1;SDS_P2;PMS_P1;PMS_P2;Temp;Humidity;BMP_temperature;BMP_pressure;BME280_temperature;BME280_humidity;BME280_pressure;Samples;Min_cycle;Max_cycle;Signal;HPM_P1;HPM_P2
2022/08/03 00:01:29;;;;;;;14.02;9.40;;;;;;;;;;5047446;28;20032;-74
2022/08/03 00:03:55;;;;;;;11.27;9.07;;;;;;;;;;5037437;28;20033;-75
2022/08/03 00:06:21;;;;;;;10.23;9.43;;;;;;;;;;5045683;28;20500;-77
2022/08/03 00:08:46;;;;;;;13.18;9.90;;;;;;;;;;5041971;28;20036;-75
2022/08/03 00:11:12;;;;;;;10.32;9.35;;;;;;;;;;5045104;28;20112;-76
2022/08/03 00:13:38;;;;;;;10.65;9.80;;;;;;;;;;5041413;28;20032;-75
2022/08/03 00:16:04;;;;;;;11.25;10.15;;;;;;;;;;5045828;28;20040;-77
2022/08/03 00:18:29;;;;;;;10.07;9.07;;;;;;;;;;5044479;28;20038;-76
2022/08/03 00:20:55;;;;;;;10.38;9.55;;;;;;;;;;5044126;28;20086;-75
2022/08/03 00:23:21;;;;;;;11.45;9.13;;;;;;;;;;5043935;28;20146;-75
2022/08/03 00:25:46;;;;;;;9.82;9.10;;;;;;;;;;5042880;28;20029;-75
2022/08/03 00:28:12;;;;;;;12.07;9.18;;;;;;;;;;5043833;28;20037;-77
2022/08/03 00:30:37;;;;;;;10.63;9.63;;;;;;;;;;5027585;28;20048;-76
2022/08/03 00:33:03;;;;;;;11.00;10.02;;;;;;;;;;5044913;28;20584;-76
2022/08/03 00:35:29;;;;;;;10.48;9.65;;;;;;;;;;5043471;28;20029;-76
2022/08/03 00:37:55;;;;;;;9.73;8.82;;;;;;;;;;5044166;28;20086;-75
2022/08/03 00:40:21;;;;;;;10.73;9.63;;;;;;;;;;5030353;28;20021;-74
2022/08/03 00:42:56;;;;;;;10.52;9.73;;;;;;;;;;5044171;28;20159;-76
2022/08/03 00:45:24;;;;;;;10.15;9.35;;;;;;;;;;5043937;28;20435;-75
2022/08/03 00:47:50;;;;;;;9.50;8.80;;;;;;;;;;5040963;28;20045;-75
2022/08/03 00:50:17;;;;;;;10.30;9.40;;;;;;;;;;5042066;28;20029;-75
2022/08/03 00:52:43;;;;;;;10.35;9.50;;;;;;;;;;5045164;28;20056;-76
2022/08/03 00:55:10;;;;;;;10.13;9.23;;;;;;;;;;5025336;28;20065;-76
2022/08/03 00:57:36;;;;;;;9.90;9.02;;;;;;;;;;5041822;28;20033;-75
2022/08/03 01:00:05;;;;;;;10.50;9.55;;;;;;;;;;5039100;28;20104;-76
2022/08/03 01:02:32;;;;;;;10.27;9.23;;;;;;;;;;5043614;28;20064;-75
2022/08/03 01:04:57;;;;;;;11.30;9.57;;;;;;;;;;5037361;28;20044;-76
2022/08/03 01:07:45;;;;;;;10.73;9.70;;;;;;;;;;5043713;28;20033;-75
2022/08/03 01:10:32;;;;;;;9.65;8.88;;;;;;;;;;5042238;28;20029;-75
2022/08/03 01:13:07;;;;;;;10.15;9.18;;;;;;;;;;5041140;28;20059;-78
2022/08/03 01:15:42;;;;;;;10.38;9.38;;;;;;;;;;5045861;28;20044;-76
2022/08/03 01:18:19;;;;;;;10.85;9.95;;;;;;;;;;5049514;28;20041;-76
2022/08/03 01:20:48;;;;;;;10.32;9.43;;;;;;;;;;5045869;28;20082;-76
2022/08/03 01:23:47;;;;;;;11.40;9.90;;;;;;;;;;5046017;28;20036;-77
2022/08/03 01:26:54;;;;;;;12.13;9.93;;;;;;;;;;5026963;28;20136;-75
2022/08/03 01:29:48;;;;;;;11.10;9.88;;;;;;;;;;5047277;28;20064;-76
2022/08/03 01:32:59;;;;;;;10.32;9.43;;;;;;;;;;5026371;28;20032;-75
2022/08/03 01:35:26;;;;;;;11.75;9.43;;;;;;;;;;4947915;28;20471;-76
2022/08/03 01:37:56;;;;;;;10.45;9.52;;;;;;;;;;4949111;28;20203;-76
2022/08/03 01:40:25;;;;;;;11.48;10.27;;;;;;;;;;4948625;28;20283;-76
2022/08/03 01:42:53;;;;;;;10.52;9.63;;;;;;;;;;4948980;28;20101;-75
2022/08/03 01:45:21;;;;;;;11.32;10.32;;;;;;;;;;4948936;28;20031;-75
2022/08/03 01:47:48;;;;;;;10.73;9.57;;;;;;;;;;4948414;28;20126;-76
2022/08/03 01:50:17;;;;;;;10.38;9.40;;;;;;;;;;4932406;29;20410;-75
2022/08/03 01:52:44;;;;;;;10.65;9.65;;;;;;;;;;4947402;28;20150;-75
2022/08/03 01:55:12;;;;;;;11.80;10.60;;;;;;;;;;4948535;28;20159;-75
2022/08/03 01:57:41;;;;;;;10.38;9.52;;;;;;;;;;4948906;28;20051;-75
2022/08/03 02:00:08;;;;;;;10.27;9.45;;;;;;;;;;4947449;28;20047;-74
2022/08/03 02:02:38;;;;;;;10.95;9.85;;;;;;;;;;4948595;28;20042;-75
2022/08/03 02:05:06;;;;;;;10.27;9.48;;;;;;;;;;4957360;28;20039;-75
2022/08/03 02:07:33;;;;;;;11.23;9.80;;;;;;;;;;5044437;28;20024;-76
2022/08/03 02:10:01;;;;;;;10.80;9.90;;;;;;;;;;5046271;28;20068;-75
2022/08/03 02:12:28;;;;;;;10.75;9.65;;;;;;;;;;5045614;28;20033;-74
2022/08/03 02:14:56;;;;;;;10.20;9.40;;;;;;;;;;5050248;28;20123;-76
2022/08/03 02:17:23;;;;;;;11.40;10.13;;;;;;;;;;5042140;28;20037;-75
2022/08/03 02:19:50;;;;;;;10.48;9.48;;;;;;;;;;5044934;28;20036;-74
2022/08/03 02:22:16;;;;;;;10.77;9.75;;;;;;;;;;5027627;28;20064;-75
2022/08/03 02:24:42;;;;;;;10.45;9.65;;;;;;;;;;5047501;28;20116;-75
2022/08/03 02:27:23;;;;;;;11.07;10.18;;;;;;;;;;5035273;28;21166;-75
2022/08/03 02:30:00;;;;;;;11.63;10.52;;;;;;;;;;5044321;28;20025;-75
2022/08/03 02:32:34;;;;;;;11.70;10.60;;;;;;;;;;5028653;28;20067;-75
2022/08/03 02:35:02;;;;;;;12.55;10.50;;;;;;;;;;5043056;28;20037;-77
2022/08/03 02:37:33;;;;;;;11.75;10.60;;;;;;;;;;5049109;28;20063;-75
2022/08/03 02:40:04;;;;;;;12.70;11.27;;;;;;;;;;5044794;28;20040;-76
2022/08/03 02:42:34;;;;;;;11.55;10.55;;;;;;;;;;5048809;28;20055;-74
2022/08/03 02:45:04;;;;;;;12.73;11.43;;;;;;;;;;5043787;28;20072;-75
2022/08/03 02:47:30;;;;;;;11.98;10.98;;;;;;;;;;5045471;28;20512;-76
2022/08/03 02:49:58;;;;;;;13.55;11.15;;;;;;;;;;5040191;28;20028;-76
2022/08/03 02:52:28;;;;;;;12.95;11.48;;;;;;;;;;5048323;28;20135;-75
2022/08/03 02:54:58;;;;;;;12.70;11.45;;;;;;;;;;5044691;28;20132;-75
2022/08/03 02:57:26;;;;;;;11.43;10.43;;;;;;;;;;5040721;28;20032;-75
2022/08/03 02:59:53;;;;;;;12.88;11.73;;;;;;;;;;5040712;28;20111;-74
2022/08/03 03:02:19;;;;;;;12.32;11.23;;;;;;;;;;5044484;28;20032;-76
2022/08/03 03:04:48;;;;;;;12.45;11.30;;;;;;;;;;5040797;28;20485;-76
2022/08/03 03:07:15;;;;;;;12.32;11.07;;;;;;;;;;5044346;28;20052;-75
2022/08/03 03:09:42;;;;;;;12.00;10.90;;;;;;;;;;5046565;28;20025;-75
2022/08/03 03:12:09;;;;;;;12.40;11.23;;;;;;;;;;5044914;28;20037;-75
2022/08/03 03:14:36;;;;;;;12.43;10.98;;;;;;;;;;5045912;28;20036;-75
2022/08/03 03:17:02;;;;;;;13.02;11.93;;;;;;;;;;5041069;28;20497;-75
2022/08/03 03:19:31;;;;;;;12.85;11.63;;;;;;;;;;5045218;28;20112;-76
2022/08/03 03:21:59;;;;;;;12.90;11.60;;;;;;;;;;5047150;28;20033;-76
2022/08/03 03:24:26;;;;;;;12.70;11.48;;;;;;;;;;5045595;28;20025;-75
2022/08/03 03:26:52;;;;;;;13.70;11.45;;;;;;;;;;5029940;28;20123;-76
2022/08/03 03:29:18;;;;;;;11.73;10.57;;;;;;;;;;5046166;28;20028;-77
2022/08/03 03:31:44;;;;;;;12.20;11.18;;;;;;;;;;5046735;28;20071;-76
2022/08/03 03:34:10;;;;;;;12.00;10.98;;;;;;;;;;5043444;28;20557;-74
2022/08/03 03:36:36;;;;;;;15.18;11.50;;;;;;;;;;5043581;28;20024;-76
2022/08/03 03:39:02;;;;;;;11.93;10.82;;;;;;;;;;5044362;28;20055;-75
2022/08/03 03:41:28;;;;;;;12.48;11.35;;;;;;;;;;5027668;28;20507;-75
2022/08/03 03:43:54;;;;;;;12.70;11.40;;;;;;;;;;5046912;28;20466;-76
2022/08/03 03:46:20;;;;;;;12.80;11.48;;;;;;;;;;5041768;28;20108;-75
2022/08/03 03:48:45;;;;;;;13.07;11.32;;;;;;;;;;5025316;28;20029;-75
2022/08/03 03:51:11;;;;;;;12.23;11.23;;;;;;;;;;5045586;28;20040;-74
2022/08/03 03:53:37;;;;;;;12.80;11.63;;;;;;;;;;5043937;28;20546;-74
2022/08/03 03:56:03;;;;;;;12.13;10.93;;;;;;;;;;5044594;28;20033;-76
2022/08/03 03:58:31;;;;;;;12.23;11.20;;;;;;;;;;5044003;28;20637;-73
2022/08/03 04:00:56;;;;;;;11.80;10.70;;;;;;;;;;5031495;28;20040;-75
2022/08/03 04:03:22;;;;;;;11.52;10.57;;;;;;;;;;5044609;28;20401;-74
2022/08/03 04:11:22;;;;;;;11.23;10.05;;;;;;;;;;5045117;28;20029;-76
2022/08/03 04:14:01;;;;;;;11.98;10.82;;;;;;;;;;5047131;28;20500;-74
2022/08/03 04:16:29;;;;;;;;;;;;;;;;;;5037807;28;20036;-74
2022/08/03 04:19:00;;;;;;;11.27;10.13;;;;;;;;;;5043092;28;19912;-75
2022/08/03 04:21:29;;;;;;;11.32;10.23;;;;;;;;;;5044328;28;20036;-75
2022/08/03 04:23:59;;;;;;;10.52;9.63;;;;;;;;;;5043010;28;20146;-74
2022/08/03 04:26:28;;;;;;;11.27;10.23;;;;;;;;;;5039577;28;20055;-74
2022/08/03 04:28:54;;;;;;;11.20;10.20;;;;;;;;;;5042341;28;20089;-75
2022/08/03 04:31:22;;;;;;;11.38;10.27;;;;;;;;;;5039704;28;20024;-75
2022/08/03 04:33:50;;;;;;;11.20;10.20;;;;;;;;;;5046160;28;20114;-77
2022/08/03 04:36:21;;;;;;;11.90;10.82;;;;;;;;;;5043304;28;20044;-77
2022/08/03 04:39:03;;;;;;;11.38;10.38;;;;;;;;;;5041092;28;20039;-76
2022/08/03 04:41:30;;;;;;;11.30;10.30;;;;;;;;;;5043716;28;20117;-77
2022/08/03 04:43:59;;;;;;;10.80;9.90;;;;;;;;;;5041392;28;20034;-74
2022/08/03 04:46:39;;;;;;;10.82;9.82;;;;;;;;;;5042014;28;20040;-76
2022/08/03 04:49:06;;;;;;;11.02;10.02;;;;;;;;;;5044723;28;20045;-77
2022/08/03 04:51:33;;;;;;;10.75;9.85;;;;;;;;;;5051100;28;20031;-75
2022/08/03 04:53:59;;;;;;;10.70;9.82;;;;;;;;;;5048971;28;20044;-76
2022/08/03 04:56:25;;;;;;;11.13;10.10;;;;;;;;;;5053850;28;20040;-77
2022/08/03 04:58:51;;;;;;;11.23;10.10;;;;;;;;;;5045808;28;20042;-77
2022/08/03 05:01:19;;;;;;;10.68;9.52;;;;;;;;;;5049196;28;20032;-76
2022/08/03 05:03:45;;;;;;;12.35;10.05;;;;;;;;;;5049198;28;21144;-77
2022/08/03 05:06:11;;;;;;;12.55;10.00;;;;;;;;;;5051695;28;20045;-77
2022/08/03 05:08:38;;;;;;;10.88;9.75;;;;;;;;;;5047671;28;20673;-77
2022/08/03 05:11:03;;;;;;;11.35;10.18;;;;;;;;;;5049437;28;20033;-76
2022/08/03 05:13:29;;;;;;;10.90;9.93;;;;;;;;;;5053314;28;20029;-78
2022/08/03 05:15:55;;;;;;;11.70;9.98;;;;;;;;;;5032065;28;20063;-76
2022/08/03 05:18:20;;;;;;;10.40;9.60;;;;;;;;;;5050234;28;20033;-76
2022/08/03 05:20:46;;;;;;;10.25;9.25;;;;;;;;;;5027469;28;20045;-77
2022/08/03 05:23:11;;;;;;;10.35;9.30;;;;;;;;;;5048244;28;20036;-77
2022/08/03 05:25:37;;;;;;;9.95;9.15;;;;;;;;;;5030420;28;20036;-77
2022/08/03 05:28:03;;;;;;;9.48;8.68;;;;;;;;;;5050921;28;20036;-77
2022/08/03 05:30:29;;;;;;;10.25;8.27;;;;;;;;;;5050952;28;20029;-77
2022/08/03 05:32:54;;;;;;;11.75;8.80;;;;;;;;;;5051148;28;20025;-77
2022/08/03 05:35:20;;;;;;;11.30;8.32;;;;;;;;;;5053211;28;20476;-77
2022/08/03 05:37:46;;;;;;;8.80;8.05;;;;;;;;;;5051010;28;20071;-77
2022/08/03 05:40:12;;;;;;;9.65;8.80;;;;;;;;;;5047622;28;20043;-76
2022/08/03 05:42:38;;;;;;;10.80;9.10;;;;;;;;;;5043699;28;20033;-77
2022/08/03 05:45:23;;;;;;;9.80;8.88;;;;;;;;;;5048357;28;20040;-77
2022/08/03 05:47:49;;;;;;;9.05;8.25;;;;;;;;;;5049989;28;20478;-79
2022/08/03 05:50:16;;;;;;;9.35;8.55;;;;;;;;;;5050738;28;20070;-78
2022/08/03 05:52:43;;;;;;;8.70;8.00;;;;;;;;;;5050848;28;20075;-77
2022/08/03 05:55:10;;;;;;;9.05;8.15;;;;;;;;;;5051346;28;20063;-76
2022/08/03 05:57:36;;;;;;;8.77;8.00;;;;;;;;;;5051472;28;20507;-77
2022/08/03 06:00:05;;;;;;;9.65;8.75;;;;;;;;;;5049271;28;20495;-78
2022/08/03 06:02:37;;;;;;;9.98;8.82;;;;;;;;;;5052029;28;20033;-75
2022/08/03 06:05:03;;;;;;;8.85;8.25;;;;;;;;;;5049755;28;20803;-76
2022/08/03 06:07:29;;;;;;;9.38;8.63;;;;;;;;;;5048276;28;20037;-78
2022/08/03 06:09:54;;;;;;;8.82;8.13;;;;;;;;;;5032172;28;20037;-77
2022/08/03 06:12:20;;;;;;;9.20;8.40;;;;;;;;;;5051982;28;20452;-77
2022/08/03 06:14:46;;;;;;;9.98;8.95;;;;;;;;;;5048419;28;20827;-79
2022/08/03 06:17:11;;;;;;;9.40;8.50;;;;;;;;;;5034859;28;20041;-80
2022/08/03 06:19:37;;;;;;;11.48;9.27;;;;;;;;;;5033361;28;20116;-78
2022/08/03 06:22:03;;;;;;;10.02;8.65;;;;;;;;;;5042009;28;20551;-77
2022/08/03 06:24:29;;;;;;;12.75;8.80;;;;;;;;;;5051188;28;20550;-79
2022/08/03 06:26:54;;;;;;;11.98;8.82;;;;;;;;;;5029450;28;20392;-78
2022/08/03 06:29:20;;;;;;;9.30;8.55;;;;;;;;;;5049439;28;20032;-80
2022/08/03 06:31:45;;;;;;;10.15;8.25;;;;;;;;;;5052082;28;20039;-78
2022/08/03 06:34:11;;;;;;;9.18;8.43;;;;;;;;;;5050614;28;20090;-78
2022/08/03 06:36:37;;;;;;;9.38;8.38;;;;;;;;;;5052203;28;20035;-78
2022/08/03 06:39:03;;;;;;;9.30;8.40;;;;;;;;;;5048722;28;20503;-79
2022/08/03 06:41:28;;;;;;;9.55;8.52;;;;;;;;;;5051888;28;20037;-80
2022/08/03 06:43:55;;;;;;;8.98;7.90;;;;;;;;;;5049890;28;20040;-79
2022/08/03 06:46:21;;;;;;;8.45;7.70;;;;;;;;;;5018476;28;20041;-79
2022/08/03 06:48:47;;;;;;;12.73;7.75;;;;;;;;;;5042775;28;20029;-80
2022/08/03 06:51:13;;;;;;;9.65;7.80;;;;;;;;;;5028758;28;20056;-80
2022/08/03 06:53:39;;;;;;;8.43;7.82;;;;;;;;;;5043721;28;20033;-80
2022/08/03 06:56:06;;;;;;;8.60;7.75;;;;;;;;;;5031574;28;20051;-78
2022/08/03 06:58:31;;;;;;;8.15;7.35;;;;;;;;;;5049472;28;20037;-81
2022/08/03 07:00:57;;;;;;;10.48;7.20;;;;;;;;;;5034267;28;20404;-80
2022/08/03 07:03:23;;;;;;;7.90;7.20;;;;;;;;;;5048301;28;20032;-78
2022/08/03 07:05:50;;;;;;;7.68;6.97;;;;;;;;;;5049136;28;20484;-79
2022/08/03 07:08:16;;;;;;;7.63;6.90;;;;;;;;;;5049316;28;20037;-79
2022/08/03 07:10:42;;;;;;;8.18;6.97;;;;;;;;;;5030922;28;20032;-81
2022/08/03 07:13:08;;;;;;;9.45;7.90;;;;;;;;;;5033708;28;20032;-80
2022/08/03 07:15:34;;;;;;;9.55;7.25;;;;;;;;;;5045542;28;20416;-79
2022/08/03 07:17:59;;;;;;;8.60;7.70;;;;;;;;;;5030039;28;20578;-79
2022/08/03 07:20:25;;;;;;;8.48;7.68;;;;;;;;;;5043785;28;20067;-78
2022/08/03 07:22:51;;;;;;;8.93;7.20;;;;;;;;;;5049215;28;20040;-78
2022/08/03 07:25:16;;;;;;;8.10;7.40;;;;;;;;;;5048967;28;20068;-79
2022/08/03 07:27:43;;;;;;;8.45;7.30;;;;;;;;;;5040789;28;20040;-78
2022/08/03 07:30:10;;;;;;;8.88;7.63;;;;;;;;;;5048631;28;20040;-79
2022/08/03 07:32:35;;;;;;;9.13;7.03;;;;;;;;;;5050080;28;20053;-78
2022/08/03 07:35:02;;;;;;;7.05;6.43;;;;;;;;;;5049504;28;20072;-78
2022/08/03 07:37:29;;;;;;;11.70;7.30;;;;;;;;;;5049138;28;20448;-79
2022/08/03 07:39:55;;;;;;;9.32;6.90;;;;;;;;;;5048851;28;20041;-80
2022/08/03 07:42:22;;;;;;;8.15;6.88;;;;;;;;;;5048840;28;20055;-81
2022/08/03 07:44:48;;;;;;;7.95;7.22;;;;;;;;;;5050693;28;20037;-78
2022/08/03 07:47:33;;;;;;;8.05;7.35;;;;;;;;;;5028123;28;20060;-79
2022/08/03 07:49:59;;;;;;;9.85;6.97;;;;;;;;;;5044438;28;20069;-80
2022/08/03 07:55:09;;;;;;;7.68;6.90;;;;;;;;;;5048946;28;20029;-79
2022/08/03 07:57:36;;;;;;;8.90;7.10;;;;;;;;;;5050694;28;20618;-80
2022/08/03 08:00:04;;;;;;;9.68;6.80;;;;;;;;;;5049059;28;20063;-79
2022/08/03 08:02:40;;;;;;;9.75;6.43;;;;;;;;;;5028064;28;20164;-78
2022/08/03 08:05:06;;;;;;;7.82;7.00;;;;;;;;;;5048981;28;20067;-78
2022/08/03 08:07:31;;;;;;;7.78;6.68;;;;;;;;;;5015473;28;20040;-79
2022/08/03 08:09:57;;;;;;;7.25;6.50;;;;;;;;;;5049329;28;20558;-78
2022/08/03 08:12:23;;;;;;;7.00;6.40;;;;;;;;;;5045081;28;20064;-79
2022/08/03 08:14:48;;;;;;;8.27;7.40;;;;;;;;;;5037901;28;20045;-79
2022/08/03 08:17:14;;;;;;;9.57;7.00;;;;;;;;;;5050921;28;20163;-79
2022/08/03 08:19:39;;;;;;;8.60;6.68;;;;;;;;;;5055116;28;20068;-78
2022/08/03 08:22:08;;;;;;;10.27;6.88;;;;;;;;;;5052275;28;20045;-79
2022/08/03 08:24:33;;;;;;;;;;;;;;;;;;5036346;28;20039;-79
2022/08/03 08:27:00;;;;;;;7.10;6.30;;;;;;;;;;5053294;28;20303;-78
2022/08/03 08:29:26;;;;;;;9.52;6.25;;;;;;;;;;5053076;28;20033;-79
2022/08/03 08:31:51;;;;;;;6.88;6.28;;;;;;;;;;5052826;28;20055;-79
2022/08/03 08:34:17;;;;;;;7.13;6.57;;;;;;;;;;5053026;28;20036;-79
2022/08/03 08:36:43;;;;;;;6.70;6.10;;;;;;;;;;5052963;28;20036;-78
2022/08/03 08:39:08;;;;;;;7.88;5.90;;;;;;;;;;5052560;28;20048;-78
2022/08/03 08:41:34;;;;;;;7.15;5.55;;;;;;;;;;5053214;28;20429;-77
2022/08/03 08:44:01;;;;;;;6.97;6.20;;;;;;;;;;5034979;28;20048;-78
2022/08/03 08:46:30;;;;;;;8.07;5.95;;;;;;;;;;5054105;28;20734;-77
2022/08/03 08:48:57;;;;;;;6.85;5.43;;;;;;;;;;5047805;28;20439;-80
2022/08/03 08:51:28;;;;;;;6.03;5.10;;;;;;;;;;5034077;28;20034;-79
2022/08/03 08:53:56;;;;;;;6.40;5.20;;;;;;;;;;5032463;28;20071;-79
2022/08/03 08:56:24;;;;;;;5.80;4.80;;;;;;;;;;5046573;28;20098;-79
2022/08/03 08:58:53;;;;;;;5.70;5.20;;;;;;;;;;5049052;28;20045;-78
2022/08/03 09:01:19;;;;;;;5.05;4.70;;;;;;;;;;5049620;28;20040;-78
2022/08/03 09:03:46;;;;;;;5.35;4.95;;;;;;;;;;5034451;28;20439;-78
2022/08/03 09:06:11;;;;;;;7.30;5.10;;;;;;;;;;5048899;28;20492;-78
2022/08/03 09:08:37;;;;;;;5.40;5.10;;;;;;;;;;5048805;28;20062;-77
2022/08/03 09:11:03;;;;;;;5.30;4.75;;;;;;;;;;5051712;28;20060;-78
2022/08/03 09:13:29;;;;;;;5.28;4.90;;;;;;;;;;5043622;28;20067;-77
2022/08/03 09:16:13;;;;;;;4.97;4.65;;;;;;;;;;5050906;28;20047;-78
2022/08/03 09:18:40;;;;;;;4.82;4.53;;;;;;;;;;5032217;28;20033;-78
2022/08/03 09:21:17;;;;;;;5.10;4.70;;;;;;;;;;5046844;28;20075;-77
2022/08/03 09:23:48;;;;;;;4.75;4.38;;;;;;;;;;5045126;28;20064;-79
2022/08/03 09:26:27;;;;;;;4.70;4.40;;;;;;;;;;5041748;28;20029;-76
2022/08/03 09:29:11;;;;;;;5.10;4.00;;;;;;;;;;5049130;28;20039;-79
2022/08/03 09:31:39;;;;;;;4.40;4.10;;;;;;;;;;5043028;28;20550;-78
2022/08/03 09:34:07;;;;;;;4.53;4.32;;;;;;;;;;5048566;28;20055;-79
2022/08/03 09:36:42;;;;;;;4.70;4.40;;;;;;;;;;5030921;28;20040;-80
2022/08/03 09:39:10;;;;;;;4.60;4.30;;;;;;;;;;5034793;28;20045;-79
2022/08/03 09:41:41;;;;;;;;;;;;;;;;;;5030926;28;20031;-80
2022/08/03 09:44:07;;;;;;;4.93;4.53;;;;;;;;;;5049528;28;20563;-79
2022/08/03 09:46:49;;;;;;;5.13;4.72;;;;;;;;;;5050944;28;20072;-79
2022/08/03 09:49:16;;;;;;;5.07;4.60;;;;;;;;;;5050863;28;20029;-79
2022/08/03 09:51:47;;;;;;;4.85;4.40;;;;;;;;;;5051775;28;20025;-78
2022/08/03 09:54:24;;;;;;;5.38;4.88;;;;;;;;;;5049502;28;20037;-78
2022/08/03 09:56:49;;;;;;;6.30;4.90;;;;;;;;;;5051627;28;20072;-79
2022/08/03 09:59:23;;;;;;;4.95;4.57;;;;;;;;;;5031019;28;20691;-79
2022/08/03 10:01:49;;;;;;;4.93;4.53;;;;;;;;;;5046187;28;20041;-77
2022/08/03 10:04:18;;;;;;;4.90;4.60;;;;;;;;;;5051577;28;20148;-78
2022/08/03 10:06:45;;;;;;;5.00;4.70;;;;;;;;;;5047449;28;20029;-78
2022/08/03 10:09:15;;;;;;;6.78;4.05;;;;;;;;;;5050840;28;20125;-78
2022/08/03 10:11:42;;;;;;;4.40;4.10;;;;;;;;;;5042797;28;20036;-78
2022/08/03 10:14:17;;;;;;;4.60;4.30;;;;;;;;;;5046036;28;20036;-78
2022/08/03 10:16:44;;;;;;;4.35;4.05;;;;;;;;;;5042966;28;20056;-78
2022/08/03 10:19:10;;;;;;;4.82;4.40;;;;;;;;;;5034189;28;20040;-78
2022/08/03 10:21:41;;;;;;;4.60;4.20;;;;;;;;;;5039088;28;20040;-78
2022/08/03 10:24:09;;;;;;;4.30;4.07;;;;;;;;;;5048301;28;20107;-79
2022/08/03 10:26:38;;;;;;;4.10;3.90;;;;;;;;;;5043907;28;20033;-78
2022/08/03 10:29:07;;;;;;;4.50;4.20;;;;;;;;;;5047512;28;20043;-78
2022/08/03 10:31:43;;;;;;;4.70;4.40;;;;;;;;;;5029675;28;20059;-78
2022/08/03 10:34:34;;;;;;;4.40;4.10;;;;;;;;;;5046293;28;20452;-77
2022/08/03 10:37:06;;;;;;;4.15;3.88;;;;;;;;;;5047473;28;20142;-77
2022/08/03 10:39:32;;;;;;;3.60;3.40;;;;;;;;;;5046231;28;20496;-79
2022/08/03 10:41:58;;;;;;;4.85;4.45;;;;;;;;;;5048028;28;20115;-79
2022/08/03 10:44:28;;;;;;;4.57;4.22;;;;;;;;;;5047115;28;20029;-78
2022/08/03 10:46:55;;;;;;;4.13;3.90;;;;;;;;;;5051852;28;20043;-79
2022/08/03 10:49:21;;;;;;;4.50;4.20;;;;;;;;;;5041471;28;20036;-77
2022/08/03 10:51:47;;;;;;;5.05;4.65;;;;;;;;;;5039326;28;20032;-78
2022/08/03 10:57:42;;;;;;;4.88;4.47;;;;;;;;;;5043725;28;20484;-78
2022/08/03 11:00:09;;;;;;;4.95;4.65;;;;;;;;;;5025294;28;20045;-79
2022/08/03 11:03:00;;;;;;;4.45;4.25;;;;;;;;;;5043073;28;20033;-78
2022/08/03 11:05:28;;;;;;;4.30;4.00;;;;;;;;;;5049520;28;20033;-78
2022/08/03 11:08:29;;;;;;;4.80;4.50;;;;;;;;;;5027627;28;20064;-78
2022/08/03 11:10:58;;;;;;;4.75;4.32;;;;;;;;;;5047111;28;20036;-78
2022/08/03 11:13:27;;;;;;;5.00;4.40;;;;;;;;;;5030217;28;20029;-77
2022/08/03 11:15:55;;;;;;;4.80;4.50;;;;;;;;;;5047124;28;20052;-78
2022/08/03 11:18:21;;;;;;;4.45;4.20;;;;;;;;;;5045633;28;20028;-78
2022/08/03 11:20:53;;;;;;;4.68;4.38;;;;;;;;;;5043123;28;20732;-79
2022/08/03 11:23:40;;;;;;;4.90;4.40;;;;;;;;;;5048350;28;20314;-78
2022/08/03 11:26:21;;;;;;;4.50;4.20;;;;;;;;;;5039263;28;20531;-78
2022/08/03 11:28:47;;;;;;;4.80;4.50;;;;;;;;;;5027651;28;20040;-78
2022/08/03 11:31:22;;;;;;;5.88;4.28;;;;;;;;;;5047856;28;20044;-77
2022/08/03 11:34:08;;;;;;;5.05;4.70;;;;;;;;;;5041610;28;20043;-78
2022/08/03 11:37:11;;;;;;;4.80;4.50;;;;;;;;;;5043343;28;20033;-78
2022/08/03 11:39:44;;;;;;;4.97;4.68;;;;;;;;;;5044729;28;20061;-78
2022/08/03 11:42:22;;;;;;;5.32;4.80;;;;;;;;;;5044750;28;20071;-78
2022/08/03 11:44:48;;;;;;;;;;;;;;;;;;5045684;28;20033;-78
2022/08/03 11:47:16;;;;;;;5.20;4.90;;;;;;;;;;5043847;28;20005;-78
2022/08/03 11:49:50;;;;;;;5.32;4.90;;;;;;;;;;5039896;28;20742;-78
2022/08/03 11:52:18;;;;;;;5.47;5.18;;;;;;;;;;5045599;28;20047;-79
2022/08/03 11:54:44;;;;;;;5.40;5.10;;;;;;;;;;5030227;28;20041;-78
2022/08/03 11:57:10;;;;;;;5.40;4.90;;;;;;;;;;5044529;28;20048;-78
2022/08/03 11:59:36;;;;;;;5.68;5.10;;;;;;;;;;5045169;28;20136;-77
2022/08/03 12:02:09;;;;;;;5.55;5.22;;;;;;;;;;5045722;28;20052;-77
2022/08/03 12:04:59;;;;;;;5.38;5.07;;;;;;;;;;5048173;28;20563;-77
2022/08/03 12:07:28;;;;;;;6.10;5.57;;;;;;;;;;5039069;28;20052;-77
2022/08/03 12:10:12;;;;;;;5.50;5.20;;;;;;;;;;5046621;28;20036;-77
2022/08/03 12:12:39;;;;;;;6.22;5.63;;;;;;;;;;5043566;28;20083;-78
2022/08/03 12:15:05;;;;;;;5.85;5.40;;;;;;;;;;5025038;28;20828;-78
2022/08/03 12:17:35;;;;;;;6.00;5.60;;;;;;;;;;5042309;28;20030;-77
2022/08/03 12:20:02;;;;;;;6.22;5.82;;;;;;;;;;5027400;28;20046;-77
2022/08/03 12:22:39;;;;;;;6.13;5.60;;;;;;;;;;5043339;28;20037;-78
2022/08/03 12:25:18;;;;;;;6.38;5.97;;;;;;;;;;5044396;28;20053;-77
2022/08/03 12:27:44;;;;;;;6.30;5.90;;;;;;;;;;5043479;28;20036;-78
2022/08/03 12:30:10;;;;;;;6.07;5.68;;;;;;;;;;5043237;28;20036;-78
2022/08/03 12:32:36;;;;;;;6.22;5.68;;;;;;;;;;5043058;28;20055;-78
2022/08/03 12:35:04;;;;;;;6.20;5.80;;;;;;;;;;5044476;28;20065;-78
2022/08/03 12:37:30;;;;;;;6.05;5.65;;;;;;;;;;5028840;28;20523;-78
2022/08/03 12:40:00;;;;;;;6.03;5.72;;;;;;;;;;5040988;28;20069;-78
2022/08/03 12:42:30;;;;;;;6.15;5.75;;;;;;;;;;5045218;28;20040;-78
2022/08/03 12:44:55;;;;;;;6.25;5.72;;;;;;;;;;5049197;28;20043;-78
2022/08/03 12:47:21;;;;;;;6.25;5.65;;;;;;;;;;5045721;28;20044;-78
2022/08/03 12:49:49;;;;;;;6.10;5.80;;;;;;;;;;5045373;28;20040;-78
2022/08/03 12:52:15;;;;;;;6.78;6.35;;;;;;;;;;5045235;28;20044;-78
2022/08/03 12:54:42;;;;;;;6.50;6.05;;;;;;;;;;5043589;28;20060;-78
2022/08/03 12:57:10;;;;;;;6.15;5.75;;;;;;;;;;5045881;28;20725;-79
2022/08/03 12:59:45;;;;;;;6.38;5.97;;;;;;;;;;5042160;28;20197;-78
2022/08/03 13:02:18;;;;;;;6.38;5.95;;;;;;;;;;5025352;28;20055;-78
2022/08/03 13:04:46;;;;;;;6.57;6.03;;;;;;;;;;5014740;28;20847;-79
2022/08/03 13:07:12;;;;;;;8.45;6.32;;;;;;;;;;5044333;28;20048;-78
2022/08/03 13:09:44;;;;;;;6.82;6.30;;;;;;;;;;5046985;28;20033;-77
2022/08/03 13:12:15;;;;;;;6.75;6.25;;;;;;;;;;5042914;28;20052;-77
2022/08/03 13:14:42;;;;;;;6.90;6.40;;;;;;;;;;5052757;28;20037;-78
2022/08/03 13:17:08;;;;;;;6.57;6.18;;;;;;;;;;5028822;28;20419;-78
2022/08/03 13:19:35;;;;;;;7.50;6.80;;;;;;;;;;5048130;28;20107;-77
2022/08/03 13:22:21;;;;;;;6.90;6.40;;;;;;;;;;5048846;28;20032;-78
2022/08/03 13:24:50;;;;;;;6.72;6.32;;;;;;;;;;5043172;28;20099;-78
2022/08/03 13:27:16;;;;;;;6.78;6.32;;;;;;;;;;5045606;28;20037;-78
2022/08/03 13:29:42;;;;;;;6.70;6.30;;;;;;;;;;5045116;28;20033;-77
2022/08/03 13:32:09;;;;;;;6.40;6.00;;;;;;;;;;5050195;28;20087;-77
2022/08/03 13:34:35;;;;;;;6.30;5.80;;;;;;;;;;5043667;28;20132;-77
2022/08/03 13:37:00;;;;;;;6.30;5.90;;;;;;;;;;5047913;28;20124;-77
2022/08/03 13:39:26;;;;;;;6.35;5.82;;;;;;;;;;5047510;28;20051;-77
2022/08/03 13:41:52;;;;;;;6.45;5.90;;;;;;;;;;5048131;28;20365;-77
2022/08/03 13:44:18;;;;;;;6.25;5.85;;;;;;;;;;5044656;28;20036;-77
2022/08/03 13:46:45;;;;;;;6.60;6.20;;;;;;;;;;5047916;28;20086;-76
2022/08/03 13:49:11;;;;;;;6.75;6.15;;;;;;;;;;5041138;28;20215;-77
2022/08/03 13:51:36;;;;;;;6.63;6.18;;;;;;;;;;5045660;28;20128;-77
2022/08/03 13:54:02;;;;;;;6.68;6.15;;;;;;;;;;5042560;28;20401;-77
2022/08/03 13:56:28;;;;;;;6.40;5.90;;;;;;;;;;5047892;28;20104;-77
2022/08/03 13:58:55;;;;;;;6.30;5.90;;;;;;;;;;5041514;28;20048;-77
2022/08/03 14:01:21;;;;;;;6.75;6.35;;;;;;;;;;5046319;28;20048;-78
2022/08/03 14:03:51;;;;;;;6.40;5.90;;;;;;;;;;5040997;28;20091;-77
2022/08/03 14:06:17;;;;;;;6.90;6.40;;;;;;;;;;5049274;28;20047;-77
2022/08/03 14:08:43;;;;;;;6.70;6.20;;;;;;;;;;5043792;28;20102;-77
2022/08/03 14:11:09;;;;;;;6.40;6.00;;;;;;;;;;5046145;28;20047;-78
2022/08/03 14:13:35;;;;;;;6.50;6.10;;;;;;;;;;5046001;28;20064;-77
2022/08/03 14:16:01;;;;;;;6.40;5.90;;;;;;;;;;5047699;28;20042;-77
2022/08/03 14:18:27;;;;;;;7.05;6.55;;;;;;;;;;5047033;28;20032;-76
2022/08/03 14:20:53;;;;;;;6.78;6.28;;;;;;;;;;5044648;28;20032;-78
2022/08/03 14:23:18;;;;;;;6.90;6.50;;;;;;;;;;5046380;28;20171;-78
2022/08/03 14:25:44;;;;;;;7.20;6.70;;;;;;;;;;5049415;28;20111;-78
2022/08/03 14:28:10;;;;;;;8.35;6.63;;;;;;;;;;5031935;28;20059;-78
2022/08/03 14:30:36;;;;;;;7.20;6.43;;;;;;;;;;5043410;28;20033;-77
2022/08/03 14:33:02;;;;;;;6.10;5.80;;;;;;;;;;5028774;28;20082;-77
2022/08/03 14:35:27;;;;;;;7.15;6.65;;;;;;;;;;5044749;28;20129;-78
2022/08/03 14:37:53;;;;;;;7.53;6.68;;;;;;;;;;5049297;28;20041;-78
2022/08/03 14:40:19;;;;;;;6.70;6.15;;;;;;;;;;5044127;28;20044;-77
2022/08/03 14:42:45;;;;;;;6.90;6.43;;;;;;;;;;5048683;28;20041;-77
2022/08/03 14:45:12;;;;;;;7.20;6.80;;;;;;;;;;5050752;28;20288;-77
2022/08/03 14:47:38;;;;;;;6.97;6.57;;;;;;;;;;5029643;28;20052;-76
2022/08/03 14:50:04;;;;;;;7.53;7.03;;;;;;;;;;5043474;28;20115;-77
2022/08/03 14:52:30;;;;;;;7.18;6.78;;;;;;;;;;5045566;28;20041;-77
2022/08/03 14:54:57;;;;;;;7.30;6.80;;;;;;;;;;5046286;28;20036;-77
2022/08/03 14:57:23;;;;;;;7.82;7.10;;;;;;;;;;5042445;28;20041;-77